메인 페이지
METAR-TAF:

METAR-TAF

공항 :

코나크리, 기니

위도: 09-34N, 경도: 013-37W, 고도: 26m

현재 날씨관측

예보는 1 시간 38분 전, 08:00시(UTC)에 발표되었습니다.
북동4kt
온도 23°C
습도 78%
기압 1011 hPa
시정: 6000m
연무

METAR: GUCY 180800Z 04004KT 6000 HZ NSC 23/19 Q1011 NOSIG

시각: 09:38 (09:38 UTC)

예보

예보는 4 시간 38분 전, 05:00시(UTC)에 발표되었습니다.
예보 대상 시간: 18일 06시부터 19일 12시까지 (UTC)
서북서4kt
시정: 5000m
연무
일시적
18일 06시부터 18일 10시까지 (UTC)
여러 방향의 바람 2kt
시정: 4000m
박무

TAF: GUCY 180500Z 1806/1912 30004KT 5000 HZ NSC TEMPO 1806/1810 VRB02KT 4000 BR NSC

4,000개 이상의 공항 관측 자료 및 예보 (METAR 및 TAF 보고).

지도상에서 검색 가능한 기상관측소가 노란 점과 빨간 점으로 표시되어 있습니다.

기상관측소 명을 보려면 표시 위로 마우스를 이동하세요.

날씨 관측과 예보를 보려면 클릭하세요.

지도 변경 : 확대하려면 엑스 표시가 있는 녹색 버튼, 축소하려면 빼기 표시가 있는 녹색 버튼, 다음 페이지의 지도를 보려면 녹색 화살표를 클릭하세요.


METAR-TAF: